Time;durP1;ratioP1;P1;durP2;ratioP2;P2;SDS_P1;SDS_P2;PMS_P1;PMS_P2;Temp;Humidity;BMP_temperature;BMP_pressure;BME280_temperature;BME280_humidity;BME280_pressure;Samples;Min_cycle;Max_cycle;Signal;HPM_P1;HPM_P2
2022/02/08 00:00:17;;;;;;;4.90;2.60;;;;;;;4.05;73.68;99188.38;5051800;28;20063;-21
2022/02/08 00:02:47;;;;;;;4.60;2.72;;;;;;;4.01;73.50;99193.22;5067908;28;20029;-20
2022/02/08 00:05:15;;;;;;;3.38;2.00;;;;;;;3.95;73.03;99194.81;5067867;28;20047;-20
2022/02/08 00:07:40;;;;;;;5.45;3.05;;;;;;;3.97;72.99;99192.81;5068193;28;20074;-20
2022/02/08 00:10:06;;;;;;;4.65;2.50;;;;;;;3.98;73.14;99186.53;5067968;28;20677;-21
2022/02/08 00:12:31;;;;;;;4.70;2.63;;;;;;;3.99;73.12;99190.78;5049892;28;20850;-20
2022/02/08 00:14:58;;;;;;;3.90;2.55;;;;;;;3.99;72.55;99195.25;5068035;28;20545;-22
2022/02/08 00:17:23;;;;;;;5.03;2.88;;;;;;;3.94;73.06;99187.94;5067818;28;20036;-21
2022/02/08 00:19:48;;;;;;;5.10;2.85;;;;;;;3.87;73.28;99181.81;5067583;28;20032;-21
2022/02/08 00:22:14;;;;;;;2.97;2.30;;;;;;;3.95;72.22;99186.91;5067759;28;20028;-20
2022/02/08 00:24:39;;;;;;;8.15;3.53;;;;;;;3.85;72.56;99178.56;5067674;28;20504;-21
2022/02/08 00:27:06;;;;;;;4.57;2.58;;;;;;;3.77;72.05;99171.63;5068028;28;20031;-20
2022/02/08 00:29:31;;;;;;;4.78;2.65;;;;;;;3.79;72.92;99179.34;5067839;28;20036;-20
2022/02/08 00:31:57;;;;;;;4.57;2.63;;;;;;;3.83;73.03;99186.66;5049503;28;20085;-20
2022/02/08 00:34:22;;;;;;;5.75;2.60;;;;;;;3.85;72.06;99162.72;5067777;28;20031;-20
2022/02/08 00:36:48;;;;;;;4.60;2.47;;;;;;;3.90;72.15;99178.75;5067615;28;20032;-21
2022/02/08 00:39:13;;;;;;;4.65;2.33;;;;;;;3.89;71.91;99169.22;5067905;28;20466;-20
2022/02/08 00:41:39;;;;;;;3.45;2.30;;;;;;;3.81;72.35;99151.75;5067697;28;20037;-22
2022/02/08 00:44:19;;;;;;;4.00;2.00;;;;;;;3.87;71.99;99176.53;5067717;28;20470;-20
2022/02/08 00:46:57;;;;;;;3.63;2.08;;;;;;;3.74;71.10;99150.09;5067256;28;20064;-21
2022/02/08 00:49:30;;;;;;;5.22;2.03;;;;;;;3.95;71.18;99192.19;5067908;28;20040;-21
2022/02/08 00:52:04;;;;;;;4.15;2.17;;;;;;;3.95;71.13;99183.47;5067728;28;20067;-20
2022/02/08 00:54:29;;;;;;;3.67;2.15;;;;;;;3.97;70.28;99190.16;5067530;28;20032;-21
2022/02/08 00:56:55;;;;;;;4.07;1.95;;;;;;;3.94;70.52;99180.03;5067995;28;20032;-20
2022/02/08 00:59:20;;;;;;;3.72;2.10;;;;;;;3.99;70.79;99180.22;5067578;28;20056;-20
2022/02/08 01:01:46;;;;;;;3.47;2.10;;;;;;;3.96;70.75;99178.00;5068015;28;20033;-20
2022/02/08 01:04:11;;;;;;;3.13;1.92;;;;;;;3.99;70.50;99180.22;5067438;28;20035;-21
2022/02/08 01:06:38;;;;;;;2.58;1.58;;;;;;;4.02;70.56;99184.28;5067206;28;20029;-21
2022/02/08 01:09:15;;;;;;;3.22;1.90;;;;;;;3.97;70.95;99176.97;5067393;28;20060;-21
2022/02/08 01:11:42;;;;;;;3.60;1.98;;;;;;;3.86;70.14;99155.63;5067326;28;20055;-21
2022/02/08 01:14:07;;;;;;;3.95;2.15;;;;;;;3.98;70.42;99173.34;5033363;28;20098;-21
2022/02/08 01:16:33;;;;;;;3.53;2.30;;;;;;;3.96;70.44;99175.38;5049247;28;20504;-21
2022/02/08 01:19:00;;;;;;;3.45;2.17;;;;;;;3.91;70.51;99171.69;5067255;28;20041;-20
2022/02/08 01:21:25;;;;;;;2.90;2.00;;;;;;;3.94;70.67;99171.28;5067431;28;20036;-20
2022/02/08 01:23:51;;;;;;;4.57;2.42;;;;;;;3.96;71.16;99185.91;5067252;28;20032;-21
2022/02/08 01:26:18;;;;;;;3.70;2.33;;;;;;;3.90;70.28;99170.03;5048936;28;20559;-21
2022/02/08 01:28:53;;;;;;;3.58;2.30;;;;;;;3.91;70.13;99177.75;5049063;28;20039;-21
2022/02/08 01:31:20;;;;;;;4.10;2.05;;;;;;;3.82;70.16;99176.28;5068817;28;20128;-21
2022/02/08 01:39:10;;;;;;;;;;;;;;;3.96;69.44;99174.53;5053346;28;20059;-22
2022/02/08 01:47:28;;;;;;;2.70;2.00;;;;;;;3.81;69.42;99198.41;5025161;28;20046;-20
2022/02/08 01:50:12;;;;;;;4.30;2.55;;;;;;;3.71;69.15;99192.69;5070742;28;20033;-20
2022/02/08 01:52:38;;;;;;;3.78;2.25;;;;;;;3.78;69.70;99202.28;5070089;28;20039;-21
2022/02/08 01:55:04;;;;;;;3.95;2.53;;;;;;;3.74;69.87;99208.94;5070423;28;20038;-21
2022/02/08 01:57:30;;;;;;;6.05;3.10;;;;;;;3.78;69.90;99214.63;5070136;28;20044;-21
2022/02/08 01:59:55;;;;;;;5.57;2.92;;;;;;;3.68;69.76;99214.16;5070469;28;20067;-20
2022/02/08 02:02:21;;;;;;;7.05;2.80;;;;;;;3.70;69.71;99222.69;5070331;28;20119;-20
2022/02/08 02:04:47;;;;;;;5.88;3.30;;;;;;;3.78;70.12;99230.44;5069845;28;20036;-20
2022/02/08 02:07:13;;;;;;;5.65;3.13;;;;;;;3.69;70.01;99215.81;5070021;28;20396;-20
2022/02/08 02:09:39;;;;;;;5.28;3.08;;;;;;;3.70;70.23;99217.41;5070458;28;20051;-20
2022/02/08 02:12:07;;;;;;;5.13;3.42;;;;;;;3.54;69.87;99198.28;5069899;28;20024;-20
2022/02/08 02:14:36;;;;;;;6.57;4.03;;;;;;;3.49;70.15;99194.59;5069831;28;20032;-20
2022/02/08 02:17:02;;;;;;;5.85;3.53;;;;;;;3.61;70.49;99222.84;5070169;28;20073;-20
2022/02/08 02:19:29;;;;;;;5.65;3.67;;;;;;;3.67;70.72;99223.09;5070083;28;20024;-21
2022/02/08 02:21:55;;;;;;;6.53;3.92;;;;;;;3.49;70.84;99218.31;5069940;28;20063;-20
2022/02/08 02:24:21;;;;;;;5.90;4.03;;;;;;;3.56;70.23;99225.28;5051823;28;20559;-22
2022/02/08 02:26:46;;;;;;;5.75;4.45;;;;;;;3.62;70.97;99236.88;5069117;28;20029;-21
2022/02/08 02:29:14;;;;;;;7.07;3.85;;;;;;;3.49;70.18;99210.41;5070168;28;20028;-20
2022/02/08 02:31:40;;;;;;;6.03;3.72;;;;;;;3.55;69.76;99236.81;5069826;28;20035;-21
2022/02/08 02:34:06;;;;;;;6.90;4.20;;;;;;;3.63;69.68;99225.28;5069923;28;20033;-20
2022/02/08 02:36:31;;;;;;;7.07;4.13;;;;;;;3.49;70.87;99232.31;5051397;28;20051;-21
2022/02/08 02:38:57;;;;;;;7.63;4.47;;;;;;;3.41;70.59;99224.56;5069372;28;20029;-20
2022/02/08 02:41:23;;;;;;;5.60;3.92;;;;;;;3.43;70.11;99222.53;5069027;28;20146;-20
2022/02/08 02:43:48;;;;;;;7.22;3.75;;;;;;;3.44;70.61;99224.19;5069461;28;20036;-20
2022/02/08 02:46:13;;;;;;;4.82;3.60;;;;;;;3.50;69.98;99226.03;5069683;28;20024;-20
2022/02/08 02:48:39;;;;;;;6.57;4.78;;;;;;;3.51;70.27;99230.28;5068972;28;20040;-21
2022/02/08 02:51:04;;;;;;;7.25;3.83;;;;;;;3.52;70.07;99246.94;5069430;28;20458;-20
2022/02/08 02:53:30;;;;;;;6.72;4.45;;;;;;;3.63;69.67;99243.75;5069151;28;20047;-20
2022/02/08 02:55:56;;;;;;;6.03;3.38;;;;;;;3.61;69.54;99249.22;5068983;28;20459;-20
2022/02/08 02:58:25;;;;;;;7.82;4.75;;;;;;;3.57;69.46;99257.72;5068967;28;20038;-22
2022/02/08 03:01:08;;;;;;;4.95;3.88;;;;;;;3.56;69.34;99264.81;5069190;28;20029;-21
2022/02/08 03:17:34;;;;;;;6.50;4.33;;;;;;;3.53;68.90;99248.56;5068932;28;20055;-21
2022/02/08 03:19:53;;;;;;;9.02;4.40;;;;;;;3.58;68.92;99270.72;5068842;28;20086;-20
2022/02/08 03:22:18;;;;;;;7.32;3.70;;;;;;;3.57;68.51;99263.78;5068499;28;20047;-21
2022/02/08 03:24:44;;;;;;;7.25;4.18;;;;;;;3.58;68.78;99278.63;5068433;28;20029;-20
2022/02/08 03:27:09;;;;;;;7.45;4.18;;;;;;;3.70;68.81;99270.16;5068131;28;20029;-21
2022/02/08 03:29:34;;;;;;;5.80;3.65;;;;;;;3.50;67.64;99238.41;5068658;28;20032;-20
2022/02/08 03:32:00;;;;;;;5.70;3.25;;;;;;;3.56;68.72;99270.09;5068495;28;20060;-21
2022/02/08 03:34:25;;;;;;;6.93;3.75;;;;;;;3.56;68.14;99275.34;5068493;28;20396;-20
2022/02/08 03:36:52;;;;;;;6.00;4.07;;;;;;;3.60;68.23;99275.78;5068464;28;20098;-20
2022/02/08 03:39:22;;;;;;;6.95;3.45;;;;;;;3.40;67.96;99262.47;5068307;28;20032;-20
2022/02/08 03:41:53;;;;;;;8.07;4.32;;;;;;;3.57;68.18;99276.97;5068363;28;20032;-20
2022/02/08 03:44:22;;;;;;;4.95;3.33;;;;;;;3.68;67.74;99265.09;5068592;28;20070;-20
2022/02/08 03:46:48;;;;;;;6.13;3.42;;;;;;;3.73;66.80;99275.06;5068241;28;20534;-21
2022/02/08 03:49:13;;;;;;;3.58;2.22;;;;;;;3.76;66.31;99287.84;5068345;28;20033;-21
2022/02/08 03:51:54;;;;;;;4.93;2.85;;;;;;;3.75;65.87;99273.03;5068700;28;20523;-20
2022/02/08 03:54:20;;;;;;;4.88;2.60;;;;;;;3.92;64.89;99287.53;5051712;28;20024;-20
2022/02/08 03:56:45;;;;;;;4.15;2.53;;;;;;;3.94;64.73;99293.47;5068340;28;20036;-21
2022/02/08 03:59:14;;;;;;;5.07;2.85;;;;;;;3.95;63.37;99294.25;5050093;28;20044;-20
2022/02/08 04:04:30;;;;;;;4.32;2.65;;;;;;;4.18;63.49;99307.16;5068022;28;20090;-20
2022/02/08 04:06:58;;;;;;;5.47;2.72;;;;;;;4.00;64.15;99319.06;5067874;28;20028;-21
2022/02/08 04:09:24;;;;;;;6.95;3.70;;;;;;;3.88;64.78;99314.50;5050736;28;20113;-21
2022/02/08 04:12:00;;;;;;;5.43;3.45;;;;;;;3.96;64.80;99331.00;5068177;28;20692;-20
2022/02/08 04:17:31;;;;;;;6.03;3.63;;;;;;;3.41;66.90;99325.53;5067960;28;20116;-21
2022/02/08 04:33:53;;;;;;;5.13;3.05;;;;;;;3.67;64.85;99408.47;5067842;28;20474;-21
2022/02/08 04:38:42;;;;;;;5.88;2.90;;;;;;;3.73;65.15;99420.09;5067773;28;20055;-20
2022/02/08 04:41:15;;;;;;;5.43;3.28;;;;;;;3.74;64.97;99421.72;5067878;28;20066;-20
2022/02/08 04:43:55;;;;;;;4.70;2.90;;;;;;;3.54;64.84;99406.56;5067877;28;20029;-20
2022/02/08 04:48:57;;;;;;;6.15;2.80;;;;;;;3.49;65.08;99411.56;5067526;28;20040;-21
2022/02/08 04:53:59;;;;;;;4.95;2.55;;;;;;;3.65;64.94;99443.97;5067739;28;20105;-20
2022/02/08 04:57:14;;;;;;;5.78;2.40;;;;;;;3.66;64.58;99449.06;5067427;28;20040;-22
2022/02/08 05:45:00;;;;;;;3.63;1.90;;;;;;;3.82;64.17;99590.38;5070698;28;20033;-21
2022/02/08 05:47:26;;;;;;;5.55;2.88;;;;;;;3.72;64.83;99590.72;5070533;28;20024;-20
2022/02/08 05:50:06;;;;;;;5.30;2.58;;;;;;;3.45;65.04;99608.00;5052836;28;20047;-21
2022/02/08 05:54:57;;;;;;;4.43;2.67;;;;;;;3.29;65.09;99611.69;5070213;28;20044;-21
2022/02/08 05:57:23;;;;;;;7.38;3.60;;;;;;;3.41;66.01;99628.66;5052672;28;20032;-21
2022/02/08 05:59:50;;;;;;;6.43;3.25;;;;;;;3.40;64.75;99645.47;5070520;28;20401;-21
2022/02/08 06:02:16;;;;;;;6.17;3.63;;;;;;;3.39;65.18;99646.50;5070278;28;20035;-20
2022/02/08 06:04:43;;;;;;;6.70;3.42;;;;;;;3.46;66.02;99656.31;5069942;28;20115;-20
2022/02/08 06:07:12;;;;;;;14.63;6.50;;;;;;;3.38;66.79;99663.28;5070154;28;20067;-20
2022/02/08 06:09:37;;;;;;;6.63;3.50;;;;;;;3.27;67.77;99676.94;5069826;28;20043;-21
2022/02/08 06:12:03;;;;;;;7.50;3.53;;;;;;;3.33;67.99;99691.19;5070022;28;20032;-21
2022/02/08 06:14:30;;;;;;;7.53;3.58;;;;;;;3.30;68.46;99688.94;5069961;28;20028;-21
2022/02/08 06:16:55;;;;;;;4.32;2.20;;;;;;;3.24;67.20;99693.09;5069271;28;20544;-20
2022/02/08 06:19:21;;;;;;;5.07;2.55;;;;;;;3.15;66.90;99692.38;5069873;28;20064;-21
2022/02/08 06:21:46;;;;;;;4.43;2.05;;;;;;;3.27;66.91;99707.72;5069927;28;20024;-21
2022/02/08 06:24:13;;;;;;;5.45;2.85;;;;;;;3.02;67.59;99686.88;5069543;28;20044;-21
2022/02/08 06:26:38;;;;;;;5.35;2.42;;;;;;;3.35;66.12;99718.19;5069541;28;20032;-20
2022/02/08 06:29:18;;;;;;;8.52;3.67;;;;;;;3.17;67.57;99729.88;5069700;28;20031;-21
2022/02/08 06:31:45;;;;;;;4.90;3.20;;;;;;;3.19;68.21;99742.91;5069701;28;20466;-20
2022/02/08 06:34:14;;;;;;;3.42;2.08;;;;;;;3.16;67.35;99732.69;5069630;28;20102;-20
2022/02/08 06:36:40;;;;;;;4.57;1.90;;;;;;;3.12;67.48;99737.50;5051597;28;20063;-21
2022/02/08 06:39:05;;;;;;;5.28;2.58;;;;;;;3.26;69.03;99741.16;5069456;28;20036;-21
2022/02/08 06:41:32;;;;;;;4.22;2.13;;;;;;;3.12;68.52;99732.22;5051878;28;20024;-20
2022/02/08 06:44:00;;;;;;;3.58;1.80;;;;;;;2.91;68.71;99725.00;5069391;28;20064;-21
2022/02/08 06:46:25;;;;;;;3.28;1.80;;;;;;;2.94;69.46;99737.00;5069140;28;20086;-20
2022/02/08 06:48:51;;;;;;;4.43;1.55;;;;;;;2.88;70.71;99741.19;5069056;28;20040;-20
2022/02/08 06:51:16;;;;;;;2.85;1.75;;;;;;;2.76;70.69;99729.44;5068963;28;20032;-21
2022/02/08 06:53:42;;;;;;;1.83;1.60;;;;;;;2.66;71.09;99727.03;5051485;28;20790;-21
2022/02/08 06:56:07;;;;;;;3.13;1.90;;;;;;;2.86;71.29;99737.06;5069169;28;20485;-21
2022/02/08 06:58:47;;;;;;;3.90;2.05;;;;;;;2.59;71.21;99726.88;5068669;28;20037;-22
2022/02/08 07:01:13;;;;;;;2.72;1.73;;;;;;;2.67;71.89;99762.88;5068901;28;20050;-20
2022/02/08 07:03:38;;;;;;;7.53;2.78;;;;;;;2.64;72.10;99763.22;5068795;28;20068;-20
2022/02/08 07:06:06;;;;;;;9.60;3.30;;;;;;;2.72;71.77;99778.16;5068711;28;20039;-25
2022/02/08 07:08:31;;;;;;;6.47;2.58;;;;;;;2.61;71.82;99767.00;5068656;28;20043;-20
2022/02/08 07:10:57;;;;;;;3.28;1.63;;;;;;;2.53;72.09;99768.88;5068834;28;20036;-21
2022/02/08 07:13:22;;;;;;;6.60;2.67;;;;;;;2.59;72.47;99776.91;5068906;28;20989;-20
2022/02/08 07:15:48;;;;;;;10.10;4.03;;;;;;;2.72;72.00;99781.59;5068719;28;20039;-20
2022/02/08 07:18:13;;;;;;;8.55;3.72;;;;;;;2.64;72.50;99784.28;5068642;28;20488;-21
2022/02/08 07:20:40;;;;;;;7.60;3.05;;;;;;;2.67;71.59;99776.03;5068430;28;20461;-21
2022/02/08 07:23:06;;;;;;;6.85;3.05;;;;;;;2.83;71.03;99790.09;5068757;28;20035;-20
2022/02/08 07:25:31;;;;;;;6.57;3.00;;;;;;;2.80;71.53;99794.72;5068628;28;20028;-20
2022/02/08 07:27:57;;;;;;;4.20;2.25;;;;;;;2.79;71.30;99798.34;5067820;28;20071;-20
2022/02/08 07:30:22;;;;;;;4.30;2.17;;;;;;;2.68;71.58;99780.31;5068648;28;20048;-21
2022/02/08 07:32:52;;;;;;;5.30;2.10;;;;;;;2.84;71.50;99810.16;5068022;28;20029;-20
2022/02/08 07:37:50;;;;;;;4.22;2.55;;;;;;;3.19;70.09;99791.13;5068364;28;20814;-21
2022/02/08 07:41:35;;;;;;;5.88;3.10;;;;;;;3.07;70.08;99797.00;5068556;28;20036;-21
2022/02/08 07:43:05;;;;;;;2.80;1.90;;;;;;;2.88;71.26;99793.00;5064595;28;20170;-20
2022/02/08 07:45:31;;;;;;;3.33;1.77;;;;;;;2.83;72.14;99811.16;5067714;28;20115;-21
2022/02/08 07:47:56;;;;;;;4.07;2.20;;;;;;;2.74;71.51;99819.13;5068312;28;20025;-20
2022/02/08 07:50:23;;;;;;;2.50;1.50;;;;;;;2.70;71.94;99825.72;5050032;28;20086;-21
2022/02/08 07:52:51;;;;;;;3.67;1.85;;;;;;;2.81;71.69;99803.44;5050060;28;20099;-21
2022/02/08 07:55:20;;;;;;;4.85;2.13;;;;;;;2.77;71.58;99813.50;5068110;28;20131;-20
2022/02/08 07:57:45;;;;;;;4.03;2.00;;;;;;;2.91;70.58;99816.38;5068225;28;20454;-21
2022/02/08 08:00:11;;;;;;;4.90;2.50;;;;;;;3.14;70.06;99846.16;5067882;28;20056;-21
2022/02/08 08:02:37;;;;;;;4.47;2.10;;;;;;;3.29;69.18;99840.13;5049728;28;20396;-21
2022/02/08 08:05:03;;;;;;;5.00;2.35;;;;;;;3.06;68.74;99842.78;5068041;28;20033;-21
2022/02/08 08:07:29;;;;;;;3.35;1.90;;;;;;;3.19;68.38;99846.47;5068165;28;20024;-20
2022/02/08 08:09:54;;;;;;;6.05;2.92;;;;;;;3.40;68.02;99853.72;5049690;28;20478;-20
2022/02/08 08:12:21;;;;;;;19.90;8.88;;;;;;;3.35;68.86;99860.50;5067714;28;20021;-21
2022/02/08 08:14:47;;;;;;;6.78;3.42;;;;;;;3.14;67.92;99861.97;5067286;28;20085;-21
2022/02/08 08:19:53;;;;;;;5.80;2.42;;;;;;;3.00;67.94;99875.91;5067809;28;20579;-21
2022/02/08 08:22:19;;;;;;;6.20;3.40;;;;;;;3.23;67.26;99881.22;5049792;28;20040;-20
2022/02/08 08:24:45;;;;;;;8.38;3.70;;;;;;;3.19;66.69;99870.19;5067552;28;20036;-20
2022/02/08 08:27:10;;;;;;;8.18;4.78;;;;;;;3.15;65.98;99854.91;5067487;28;20085;-21
2022/02/08 08:29:36;;;;;;;9.18;5.78;;;;;;;3.26;65.45;99885.31;5067888;28;20408;-21
2022/02/08 08:32:04;;;;;;;6.22;2.35;;;;;;;3.27;63.92;99887.78;5067876;28;20028;-20
2022/02/08 08:34:30;;;;;;;7.57;3.60;;;;;;;3.42;63.86;99901.81;5067651;28;20031;-21
2022/02/08 08:36:56;;;;;;;7.30;4.00;;;;;;;3.64;63.74;99899.34;5067587;28;20033;-20
2022/02/08 08:39:25;;;;;;;5.60;2.88;;;;;;;3.66;63.38;99896.50;5049687;28;20032;-20
2022/02/08 08:42:16;;;;;;;3.72;2.03;;;;;;;3.51;61.73;99899.94;5054254;28;20029;-21
2022/02/08 08:50:06;;;;;;;5.68;3.20;;;;;;;3.73;61.20;99921.19;5071604;28;20125;-20
2022/02/08 08:52:42;;;;;;;25.60;7.55;;;;;;;3.86;61.53;99917.94;5071499;28;20032;-20
2022/02/08 08:55:08;;;;;;;10.00;3.85;;;;;;;4.07;60.43;99919.91;5071455;28;20107;-20
2022/02/08 08:57:33;;;;;;;9.32;3.60;;;;;;;3.98;60.83;99927.06;5053239;28;20040;-20
2022/02/08 08:59:59;;;;;;;8.32;3.45;;;;;;;3.85;60.61;99901.31;5071488;28;20068;-20
2022/02/08 09:02:25;;;;;;;3.60;2.20;;;;;;;3.94;60.20;99926.63;5070574;28;20115;-21
2022/02/08 09:04:52;;;;;;;6.15;3.15;;;;;;;4.10;60.74;99930.09;5071178;28;20060;-20
2022/02/08 09:07:18;;;;;;;6.07;2.92;;;;;;;4.14;60.03;99936.66;5071036;28;20063;-20
2022/02/08 09:09:46;;;;;;;7.82;3.55;;;;;;;4.16;60.45;99934.66;5071092;28;20028;-20
2022/02/08 09:30:30;;;;;;;9.50;3.95;;;;;;;4.98;57.65;99944.28;5070898;28;20515;-20
2022/02/08 09:32:55;;;;;;;4.25;2.35;;;;;;;4.93;57.83;99938.75;5070790;28;20032;-21
2022/02/08 09:35:21;;;;;;;4.55;2.50;;;;;;;4.82;57.39;99927.63;5052726;28;20040;-20
2022/02/08 09:37:46;;;;;;;3.28;2.05;;;;;;;4.84;56.39;99948.56;5070395;28;20028;-20
2022/02/08 09:40:14;;;;;;;5.38;2.75;;;;;;;4.75;58.04;99918.81;5052628;28;20032;-20
2022/02/08 09:42:41;;;;;;;5.45;3.20;;;;;;;5.08;57.53;99934.22;5070309;28;20534;-20
2022/02/08 09:45:11;;;;;;;4.57;2.72;;;;;;;5.02;56.14;99934.97;5070550;28;20032;-20
2022/02/08 09:47:45;;;;;;;7.38;3.17;;;;;;;5.02;57.29;99929.69;5070329;28;20447;-20
2022/02/08 09:50:22;;;;;;;9.98;4.47;;;;;;;4.92;56.22;99923.88;5070502;28;20032;-20
2022/02/08 09:52:52;;;;;;;10.73;4.03;;;;;;;5.14;56.86;99927.38;5069182;28;20037;-21
2022/02/08 09:55:18;;;;;;;19.73;6.30;;;;;;;5.39;57.68;99946.34;5070522;28;20028;-20
2022/02/08 09:57:44;;;;;;;9.60;4.68;;;;;;;5.60;56.18;99943.72;5070211;28;20587;-20
2022/02/08 10:00:10;;;;;;;9.93;5.28;;;;;;;5.76;57.06;99947.94;5070160;28;20057;-20
2022/02/08 10:02:36;;;;;;;5.18;3.10;;;;;;;5.86;54.97;99937.00;5069605;28;20025;-20
2022/02/08 10:05:03;;;;;;;4.93;2.72;;;;;;;6.06;54.42;99939.03;5035439;28;20170;-22
2022/02/08 10:07:32;;;;;;;4.72;2.80;;;;;;;5.95;53.49;99937.75;5070018;28;20480;-20
2022/02/08 10:09:58;;;;;;;5.18;2.60;;;;;;;6.09;52.62;99925.41;5052626;28;20462;-20
2022/02/08 10:12:29;;;;;;;3.72;2.30;;;;;;;6.33;52.98;99916.19;5052331;28;20040;-20
2022/02/08 10:22:40;;;;;;;7.53;3.38;;;;;;;7.12;51.60;99921.03;5069384;28;20034;-21
2022/02/08 10:25:07;;;;;;;8.82;3.60;;;;;;;7.28;48.79;99924.34;5069845;28;20040;-20
2022/02/08 10:27:43;;;;;;;7.97;2.55;;;;;;;7.23;48.84;99928.44;5069609;28;20458;-20
2022/02/08 10:38:21;;;;;;;7.07;3.17;;;;;;;7.55;47.10;99922.56;5069436;28;20034;-20
2022/02/08 10:40:47;;;;;;;5.72;2.88;;;;;;;7.39;46.29;99897.22;5069345;28;20029;-21
2022/02/08 10:43:16;;;;;;;4.43;2.08;;;;;;;7.66;45.72;99921.94;5069325;28;20999;-20
2022/02/08 10:45:41;;;;;;;2.40;1.20;;;;;;;7.57;46.32;99908.06;5051563;28;20020;-20
2022/02/08 10:48:16;;;;;;;5.47;2.92;;;;;;;8.02;46.36;99916.22;5069085;28;20071;-20
2022/02/08 10:50:47;;;;;;;5.68;2.30;;;;;;;8.33;45.38;99916.59;5068883;28;20107;-20
2022/02/08 10:53:13;;;;;;;2.20;1.48;;;;;;;8.37;44.70;99913.31;5051743;28;20579;-21
2022/02/08 10:55:54;;;;;;;12.10;5.78;;;;;;;8.73;45.38;99917.34;5069017;28;20025;-20
2022/02/08 11:00:52;;;;;;;14.63;6.32;;;;;;;8.44;43.41;99897.41;5068840;28;20047;-20
2022/02/08 11:03:27;;;;;;;21.83;8.70;;;;;;;8.28;43.14;99898.63;5068585;28;20028;-20
2022/02/08 11:06:06;;;;;;;23.05;11.60;;;;;;;8.53;44.52;99911.28;5052415;28;20050;-21
2022/02/08 11:09:16;;;;;;;13.75;4.65;;;;;;;8.13;42.88;99916.63;5052325;28;20028;-20
2022/02/08 11:17:50;;;;;;;9.87;4.97;;;;;;;7.72;43.63;99930.94;5068581;28;20036;-20
2022/02/08 11:19:52;;;;;;;14.95;6.00;;;;;;;7.47;44.88;99928.88;5068203;28;20036;-20
2022/02/08 11:24:56;;;;;;;18.75;8.57;;;;;;;7.59;44.54;99939.72;5068930;28;20028;-20
2022/02/08 11:27:21;;;;;;;14.15;6.63;;;;;;;7.47;43.93;99936.81;5068432;28;20389;-20
2022/02/08 11:30:03;;;;;;;33.15;13.20;;;;;;;7.73;43.30;99944.00;5068663;28;20039;-20
2022/02/08 11:32:44;;;;;;;17.55;8.07;;;;;;;7.62;43.22;99929.50;5051043;28;20463;-20
2022/02/08 11:52:14;;;;;;;13.18;5.30;;;;;;;8.18;40.72;99888.44;5026200;28;19982;-20
2022/02/08 12:07:27;;;;;;;29.08;12.10;;;;;;;8.65;41.59;99933.53;5067792;28;20028;-20
2022/02/08 13:00:21;;;;;;;15.17;11.10;;;;;;;7.88;44.02;100020.81;5067381;28;20052;-20
2022/02/08 13:04:55;;;;;;;8.50;4.55;;;;;;;8.30;42.49;100044.56;5067227;28;20800;-20
2022/02/08 14:02:15;;;;;;;8.88;3.88;;;;;;;8.43;41.89;100087.09;5054989;28;20102;-20
2022/02/08 14:07:24;;;;;;;52.25;31.45;;;;;;;8.75;41.60;100090.78;5070225;28;20024;-21
2022/02/08 14:09:59;;;;;;;10.27;5.38;;;;;;;8.75;40.00;100108.56;5070044;28;20037;-21
2022/02/08 14:18:00;;;;;;;46.10;25.60;;;;;;;8.94;42.68;100110.38;5070023;28;20039;-20
2022/02/08 14:25:49;;;;;;;21.80;12.30;;;;;;;8.95;42.29;100135.13;5069822;28;20036;-21
2022/02/08 15:10:46;;;;;;;7.90;3.75;;;;;;;7.27;43.22;100175.50;5061321;28;20094;-20
2022/02/08 15:13:13;;;;;;;5.65;4.13;;;;;;;7.13;42.63;100147.28;5050158;28;20044;-21
2022/02/08 15:18:19;;;;;;;7.82;4.47;;;;;;;7.08;43.82;100184.16;5048686;28;20175;-21
2022/02/08 15:20:45;;;;;;;9.10;4.50;;;;;;;7.08;44.45;100190.28;5048323;28;20037;-20
2022/02/08 15:23:12;;;;;;;9.80;5.95;;;;;;;6.95;44.25;100195.50;5048402;28;20021;-20
2022/02/08 15:25:37;;;;;;;11.48;7.30;;;;;;;6.93;45.07;100192.22;5048337;28;20623;-21
2022/02/08 15:28:04;;;;;;;16.95;9.75;;;;;;;6.95;46.68;100195.50;5047939;28;20060;-20
2022/02/08 15:30:31;;;;;;;20.17;9.68;;;;;;;6.87;46.28;100187.69;5047924;28;20474;-20
2022/02/08 15:32:56;;;;;;;12.00;6.88;;;;;;;6.95;46.20;100190.19;5048223;28;20584;-20
2022/02/08 15:35:22;;;;;;;9.32;4.53;;;;;;;6.99;45.56;100196.75;5048304;28;20104;-21
2022/02/08 15:37:50;;;;;;;10.85;6.05;;;;;;;6.49;44.25;100172.88;5048144;28;20033;-21
2022/02/08 15:40:16;;;;;;;8.55;3.95;;;;;;;6.43;46.54;100187.69;5048078;28;20040;-21
2022/02/08 15:42:41;;;;;;;7.20;4.00;;;;;;;6.89;46.63;100201.56;5047600;28;20037;-20
2022/02/08 15:45:23;;;;;;;7.18;4.53;;;;;;;6.77;46.03;100215.31;5048210;28;20488;-21
2022/02/08 15:47:50;;;;;;;26.42;15.65;;;;;;;6.53;46.87;100228.97;5047971;28;20036;-20
2022/02/08 15:50:23;;;;;;;13.52;7.30;;;;;;;6.42;47.69;100238.22;5047191;28;20113;-20
2022/02/08 15:55:32;;;;;;;18.15;10.20;;;;;;;6.34;49.86;100230.41;5047815;28;20045;-20
2022/02/08 15:58:17;;;;;;;8.30;5.13;;;;;;;6.34;49.75;100235.69;5047899;28;20036;-20
2022/02/08 16:08:46;;;;;;;15.45;11.57;;;;;;;5.88;49.65;100234.06;5067489;28;20024;-20
2022/02/08 16:22:43;;;;;;;10.50;5.10;;;;;;;5.94;50.21;100293.41;4966204;28;20046;-20
2022/02/08 16:53:33;;;;;;;16.75;9.50;;;;;;;3.88;55.36;100315.13;5066995;28;20037;-20
2022/02/08 16:58:39;;;;;;;10.73;6.10;;;;;;;3.85;55.86;100348.97;5048732;28;20043;-21
2022/02/08 17:01:12;;;;;;;12.18;7.32;;;;;;;3.54;57.06;100365.50;5068399;28;20108;-21
2022/02/08 17:03:44;;;;;;;17.23;9.05;;;;;;;4.08;55.91;100381.56;5070791;28;20101;-20
2022/02/08 17:06:10;;;;;;;26.77;13.65;;;;;;;4.38;54.66;100366.78;5071204;28;20028;-20
2022/02/08 17:08:35;;;;;;;16.15;9.57;;;;;;;4.30;54.78;100374.72;5070777;28;20021;-21
2022/02/08 17:11:02;;;;;;;379.35;268.95;;;;;;;4.69;54.28;100383.66;5070844;28;20472;-21
2022/02/08 17:48:02;;;;;;;28.80;15.90;;;;;;;4.15;55.14;100455.63;5070379;28;20849;-21
2022/02/08 17:50:28;;;;;;;30.05;15.52;;;;;;;3.86;54.92;100449.03;5070318;28;20041;-21
2022/02/08 17:52:55;;;;;;;69.38;30.60;;;;;;;3.77;55.61;100447.41;5070199;28;20036;-21
2022/02/08 17:55:21;;;;;;;48.22;24.08;;;;;;;3.41;55.36;100421.31;5069938;28;20039;-21
2022/02/08 17:57:47;;;;;;;16.35;7.72;;;;;;;3.35;56.04;100454.47;5069983;28;20040;-21
2022/02/08 18:00:14;;;;;;;10.60;4.60;;;;;;;3.24;56.77;100461.84;5069924;28;20068;-21
2022/02/08 18:02:41;;;;;;;53.95;27.63;;;;;;;3.10;57.44;100482.56;5069642;28;20032;-22
2022/02/08 18:05:07;;;;;;;73.10;37.30;;;;;;;3.29;56.58;100470.09;5069741;28;20028;-20
2022/02/08 18:07:33;;;;;;;39.70;21.55;;;;;;;3.86;54.69;100475.41;5071729;28;20028;-20
2022/02/08 18:09:58;;;;;;;45.17;25.83;;;;;;;3.80;55.08;100484.00;5081144;28;20032;-20
2022/02/08 18:12:26;;;;;;;48.92;27.83;;;;;;;3.58;54.73;100474.94;5089056;28;20439;-22
2022/02/08 18:15:03;;;;;;;63.03;33.10;;;;;;;3.42;55.96;100491.53;5072361;28;20031;-21
2022/02/08 18:17:32;;;;;;;54.47;31.55;;;;;;;3.49;55.64;100503.06;5089982;28;20043;-21
2022/02/08 18:20:40;;;;;;;40.90;27.40;;;;;;;3.36;55.81;100503.56;5089834;28;20036;-21
2022/02/08 18:28:38;;;;;;;14.85;8.00;;;;;;;3.13;56.01;100503.31;5005732;28;20045;-20
2022/02/08 19:11:47;;;;;;;19.02;7.95;;;;;;;3.50;54.43;100585.66;5068703;28;20093;-20
2022/02/08 19:22:09;;;;;;;20.27;9.07;;;;;;;3.19;54.77;100581.75;5068362;28;20039;-20
2022/02/08 19:24:34;;;;;;;18.05;9.43;;;;;;;3.64;54.63;100606.16;5068149;28;20029;-21
2022/02/08 19:27:01;;;;;;;13.70;7.20;;;;;;;3.44;54.84;100605.59;5050228;28;20032;-21
2022/02/08 19:29:29;;;;;;;15.75;7.43;;;;;;;3.40;54.77;100607.72;5068248;28;20025;-21
2022/02/08 19:31:55;;;;;;;20.55;8.82;;;;;;;3.30;54.68;100600.91;5068036;28;20036;-21
2022/02/08 19:34:20;;;;;;;8.80;4.60;;;;;;;3.19;53.98;100586.22;5068513;28;20114;-20
2022/02/08 19:36:46;;;;;;;8.05;3.42;;;;;;;3.08;54.58;100618.09;5067821;28;20036;-21
2022/02/08 19:39:12;;;;;;;10.13;3.63;;;;;;;2.83;55.89;100612.69;5068047;28;20036;-21
2022/02/08 19:41:37;;;;;;;7.20;3.55;;;;;;;2.74;56.10;100596.00;5067949;28;20043;-21
2022/02/08 19:44:04;;;;;;;32.97;9.93;;;;;;;2.74;55.65;100598.63;5067918;28;20040;-21
2022/02/08 19:46:29;;;;;;;14.15;5.97;;;;;;;2.87;56.43;100624.56;5067818;28;20128;-20
2022/02/08 19:48:55;;;;;;;10.75;5.05;;;;;;;2.96;56.35;100623.66;5068213;28;20673;-21
2022/02/08 19:51:20;;;;;;;11.02;4.47;;;;;;;3.06;55.55;100633.22;5068124;28;20040;-21
2022/02/08 19:53:48;;;;;;;13.80;6.03;;;;;;;3.06;55.70;100628.78;5067918;28;20105;-21